sensor_id;sensor_type;location;lat;lon;timestamp;P1;durP1;ratioP1;P2;durP2;ratioP2
21804;SDS011;11064;47.102;15.452;2023-04-01T00:01:12;7.65;;;4.90;;
21804;SDS011;11064;47.102;15.452;2023-04-01T00:03:39;6.43;;;4.80;;
21804;SDS011;11064;47.102;15.452;2023-04-01T00:06:06;7.40;;;5.18;;
21804;SDS011;11064;47.102;15.452;2023-04-01T00:08:31;6.35;;;4.85;;
21804;SDS011;11064;47.102;15.452;2023-04-01T00:10:58;8.05;;;5.35;;
21804;SDS011;11064;47.102;15.452;2023-04-01T00:13:24;6.82;;;5.25;;
21804;SDS011;11064;47.102;15.452;2023-04-01T00:15:51;8.93;;;5.63;;
21804;SDS011;11064;47.102;15.452;2023-04-01T00:18:18;9.27;;;5.80;;
21804;SDS011;11064;47.102;15.452;2023-04-01T00:20:48;7.63;;;6.18;;
21804;SDS011;11064;47.102;15.452;2023-04-01T00:23:15;7.85;;;6.15;;
21804;SDS011;11064;47.102;15.452;2023-04-01T00:25:41;10.65;;;6.15;;
21804;SDS011;11064;47.102;15.452;2023-04-01T00:28:07;9.13;;;6.35;;
21804;SDS011;11064;47.102;15.452;2023-04-01T00:30:33;9.15;;;6.20;;
21804;SDS011;11064;47.102;15.452;2023-04-01T00:33:02;9.85;;;6.32;;
21804;SDS011;11064;47.102;15.452;2023-04-01T00:35:28;8.95;;;6.93;;
21804;SDS011;11064;47.102;15.452;2023-04-01T00:37:54;10.60;;;6.82;;
21804;SDS011;11064;47.102;15.452;2023-04-01T00:40:36;10.00;;;7.47;;
21804;SDS011;11064;47.102;15.452;2023-04-01T00:43:12;8.77;;;7.00;;
21804;SDS011;11064;47.102;15.452;2023-04-01T00:45:41;9.75;;;7.25;;
21804;SDS011;11064;47.102;15.452;2023-04-01T00:48:29;11.38;;;7.00;;
21804;SDS011;11064;47.102;15.452;2023-04-01T00:50:59;9.95;;;6.97;;
21804;SDS011;11064;47.102;15.452;2023-04-01T00:53:28;10.00;;;6.78;;
21804;SDS011;11064;47.102;15.452;2023-04-01T00:55:59;10.63;;;6.65;;
21804;SDS011;11064;47.102;15.452;2023-04-01T00:58:31;8.13;;;6.15;;
21804;SDS011;11064;47.102;15.452;2023-04-01T01:01:00;8.88;;;6.43;;
21804;SDS011;11064;47.102;15.452;2023-04-01T01:03:26;9.60;;;5.97;;
21804;SDS011;11064;47.102;15.452;2023-04-01T01:06:08;9.10;;;6.45;;
21804;SDS011;11064;47.102;15.452;2023-04-01T01:09:06;8.75;;;6.30;;
21804;SDS011;11064;47.102;15.452;2023-04-01T01:11:38;8.27;;;6.20;;
21804;SDS011;11064;47.102;15.452;2023-04-01T01:14:20;8.98;;;6.70;;
21804;SDS011;11064;47.102;15.452;2023-04-01T01:17:06;11.35;;;6.97;;
21804;SDS011;11064;47.102;15.452;2023-04-01T01:37:16;8.85;;;6.60;;
21804;SDS011;11064;47.102;15.452;2023-04-01T01:39:46;10.73;;;7.15;;
21804;SDS011;11064;47.102;15.452;2023-04-01T01:42:17;10.85;;;6.80;;
21804;SDS011;11064;47.102;15.452;2023-04-01T01:44:46;8.73;;;6.25;;
21804;SDS011;11064;47.102;15.452;2023-04-01T01:47:14;8.02;;;6.32;;
21804;SDS011;11064;47.102;15.452;2023-04-01T01:49:42;8.07;;;6.35;;
21804;SDS011;11064;47.102;15.452;2023-04-01T01:52:11;13.32;;;6.28;;
21804;SDS011;11064;47.102;15.452;2023-04-01T01:54:46;9.82;;;6.63;;
21804;SDS011;11064;47.102;15.452;2023-04-01T01:57:31;8.95;;;5.38;;
21804;SDS011;11064;47.102;15.452;2023-04-01T02:00:09;9.30;;;5.72;;
21804;SDS011;11064;47.102;15.452;2023-04-01T02:02:40;8.88;;;5.43;;
21804;SDS011;11064;47.102;15.452;2023-04-01T02:05:15;9.73;;;5.72;;
21804;SDS011;11064;47.102;15.452;2023-04-01T02:07:44;7.65;;;5.60;;
21804;SDS011;11064;47.102;15.452;2023-04-01T02:10:19;6.03;;;5.00;;
21804;SDS011;11064;47.102;15.452;2023-04-01T02:12:47;8.35;;;5.18;;
21804;SDS011;11064;47.102;15.452;2023-04-01T02:15:15;9.05;;;5.40;;
21804;SDS011;11064;47.102;15.452;2023-04-01T02:17:43;6.53;;;4.65;;
21804;SDS011;11064;47.102;15.452;2023-04-01T02:20:13;9.82;;;5.40;;
21804;SDS011;11064;47.102;15.452;2023-04-01T02:22:49;7.55;;;5.10;;
21804;SDS011;11064;47.102;15.452;2023-04-01T02:25:20;6.63;;;4.38;;
21804;SDS011;11064;47.102;15.452;2023-04-01T02:27:50;5.95;;;4.22;;
21804;SDS011;11064;47.102;15.452;2023-04-01T02:30:18;6.72;;;4.82;;
21804;SDS011;11064;47.102;15.452;2023-04-01T02:32:45;8.18;;;5.32;;
21804;SDS011;11064;47.102;15.452;2023-04-01T02:35:12;8.10;;;5.03;;
21804;SDS011;11064;47.102;15.452;2023-04-01T02:37:41;7.38;;;5.07;;
21804;SDS011;11064;47.102;15.452;2023-04-01T02:40:09;7.65;;;5.18;;
21804;SDS011;11064;47.102;15.452;2023-04-01T02:42:37;9.55;;;4.85;;
21804;SDS011;11064;47.102;15.452;2023-04-01T02:45:04;7.72;;;4.68;;
21804;SDS011;11064;47.102;15.452;2023-04-01T02:47:31;6.60;;;4.47;;
21804;SDS011;11064;47.102;15.452;2023-04-01T02:49:57;6.53;;;4.68;;
21804;SDS011;11064;47.102;15.452;2023-04-01T02:52:24;8.63;;;4.80;;
21804;SDS011;11064;47.102;15.452;2023-04-01T02:54:50;5.90;;;4.50;;
21804;SDS011;11064;47.102;15.452;2023-04-01T02:57:16;6.88;;;4.45;;
21804;SDS011;11064;47.102;15.452;2023-04-01T02:59:42;5.78;;;4.60;;
21804;SDS011;11064;47.102;15.452;2023-04-01T03:02:07;8.02;;;4.72;;
21804;SDS011;11064;47.102;15.452;2023-04-01T03:04:33;8.15;;;5.03;;
21804;SDS011;11064;47.102;15.452;2023-04-01T03:06:59;7.30;;;4.75;;
21804;SDS011;11064;47.102;15.452;2023-04-01T03:09:25;6.80;;;4.80;;
21804;SDS011;11064;47.102;15.452;2023-04-01T03:11:51;6.75;;;5.00;;
21804;SDS011;11064;47.102;15.452;2023-04-01T03:14:17;8.32;;;4.80;;
21804;SDS011;11064;47.102;15.452;2023-04-01T03:16:43;7.22;;;4.88;;
21804;SDS011;11064;47.102;15.452;2023-04-01T03:19:08;5.32;;;4.32;;
21804;SDS011;11064;47.102;15.452;2023-04-01T03:21:35;8.30;;;4.25;;
21804;SDS011;11064;47.102;15.452;2023-04-01T03:24:01;5.65;;;4.18;;
21804;SDS011;11064;47.102;15.452;2023-04-01T03:26:27;6.05;;;3.95;;
21804;SDS011;11064;47.102;15.452;2023-04-01T03:28:53;9.77;;;4.07;;
21804;SDS011;11064;47.102;15.452;2023-04-01T03:31:19;5.82;;;3.88;;
21804;SDS011;11064;47.102;15.452;2023-04-01T03:33:45;8.02;;;4.68;;
21804;SDS011;11064;47.102;15.452;2023-04-01T03:36:11;6.40;;;4.38;;
21804;SDS011;11064;47.102;15.452;2023-04-01T03:38:38;8.13;;;5.00;;
21804;SDS011;11064;47.102;15.452;2023-04-01T03:41:11;6.90;;;5.07;;
21804;SDS011;11064;47.102;15.452;2023-04-01T03:43:41;7.88;;;5.10;;
21804;SDS011;11064;47.102;15.452;2023-04-01T03:46:07;8.10;;;5.00;;
21804;SDS011;11064;47.102;15.452;2023-04-01T03:48:33;6.38;;;4.60;;
21804;SDS011;11064;47.102;15.452;2023-04-01T03:50:58;6.32;;;4.50;;
21804;SDS011;11064;47.102;15.452;2023-04-01T03:53:24;6.07;;;4.75;;
21804;SDS011;11064;47.102;15.452;2023-04-01T03:55:52;7.63;;;5.25;;
21804;SDS011;11064;47.102;15.452;2023-04-01T03:58:18;6.45;;;4.78;;
21804;SDS011;11064;47.102;15.452;2023-04-01T04:00:45;7.47;;;4.93;;
21804;SDS011;11064;47.102;15.452;2023-04-01T04:03:11;7.10;;;4.70;;
21804;SDS011;11064;47.102;15.452;2023-04-01T04:05:37;5.75;;;4.85;;
21804;SDS011;11064;47.102;15.452;2023-04-01T04:08:03;7.75;;;4.60;;
21804;SDS011;11064;47.102;15.452;2023-04-01T04:10:29;6.35;;;4.78;;
21804;SDS011;11064;47.102;15.452;2023-04-01T04:12:55;6.63;;;4.35;;
21804;SDS011;11064;47.102;15.452;2023-04-01T04:15:22;8.00;;;4.70;;
21804;SDS011;11064;47.102;15.452;2023-04-01T04:17:48;8.05;;;5.25;;
21804;SDS011;11064;47.102;15.452;2023-04-01T04:20:14;8.63;;;4.85;;
21804;SDS011;11064;47.102;15.452;2023-04-01T04:22:40;7.13;;;4.63;;
21804;SDS011;11064;47.102;15.452;2023-04-01T04:25:06;6.03;;;4.80;;
21804;SDS011;11064;47.102;15.452;2023-04-01T04:27:32;8.55;;;4.40;;
21804;SDS011;11064;47.102;15.452;2023-04-01T04:29:58;6.10;;;4.20;;
21804;SDS011;11064;47.102;15.452;2023-04-01T04:32:24;5.82;;;4.40;;
21804;SDS011;11064;47.102;15.452;2023-04-01T04:34:50;7.80;;;4.32;;
21804;SDS011;11064;47.102;15.452;2023-04-01T04:37:16;6.72;;;4.30;;
21804;SDS011;11064;47.102;15.452;2023-04-01T04:39:42;6.88;;;4.20;;
21804;SDS011;11064;47.102;15.452;2023-04-01T04:42:07;5.65;;;4.47;;
21804;SDS011;11064;47.102;15.452;2023-04-01T04:44:33;6.43;;;4.78;;
21804;SDS011;11064;47.102;15.452;2023-04-01T05:02:31;6.97;;;4.55;;
21804;SDS011;11064;47.102;15.452;2023-04-01T05:04:57;6.07;;;4.97;;
21804;SDS011;11064;47.102;15.452;2023-04-01T05:07:23;8.48;;;4.75;;
21804;SDS011;11064;47.102;15.452;2023-04-01T05:09:49;7.00;;;4.65;;
21804;SDS011;11064;47.102;15.452;2023-04-01T05:12:15;7.05;;;4.95;;
21804;SDS011;11064;47.102;15.452;2023-04-01T05:14:40;7.38;;;5.10;;
21804;SDS011;11064;47.102;15.452;2023-04-01T05:17:10;7.22;;;5.20;;
21804;SDS011;11064;47.102;15.452;2023-04-01T05:19:37;7.70;;;5.20;;
21804;SDS011;11064;47.102;15.452;2023-04-01T05:22:03;7.40;;;5.10;;
21804;SDS011;11064;47.102;15.452;2023-04-01T05:24:29;8.88;;;4.85;;
21804;SDS011;11064;47.102;15.452;2023-04-01T05:26:56;8.07;;;4.88;;
21804;SDS011;11064;47.102;15.452;2023-04-01T05:29:23;6.30;;;4.93;;
21804;SDS011;11064;47.102;15.452;2023-04-01T05:31:49;8.52;;;5.10;;
21804;SDS011;11064;47.102;15.452;2023-04-01T05:34:15;6.32;;;4.78;;
21804;SDS011;11064;47.102;15.452;2023-04-01T05:36:42;9.10;;;5.22;;
21804;SDS011;11064;47.102;15.452;2023-04-01T05:39:08;7.22;;;4.90;;
21804;SDS011;11064;47.102;15.452;2023-04-01T05:41:35;6.68;;;4.50;;
21804;SDS011;11064;47.102;15.452;2023-04-01T05:44:01;6.85;;;4.22;;
21804;SDS011;11064;47.102;15.452;2023-04-01T05:46:27;8.20;;;4.30;;
21804;SDS011;11064;47.102;15.452;2023-04-01T05:48:53;7.28;;;4.95;;
21804;SDS011;11064;47.102;15.452;2023-04-01T05:51:20;6.05;;;4.32;;
21804;SDS011;11064;47.102;15.452;2023-04-01T05:53:46;5.03;;;4.45;;
21804;SDS011;11064;47.102;15.452;2023-04-01T05:56:12;7.43;;;4.18;;
21804;SDS011;11064;47.102;15.452;2023-04-01T05:58:38;5.05;;;4.00;;
21804;SDS011;11064;47.102;15.452;2023-04-01T06:01:05;6.95;;;5.05;;
21804;SDS011;11064;47.102;15.452;2023-04-01T06:03:34;6.00;;;4.47;;
21804;SDS011;11064;47.102;15.452;2023-04-01T06:06:00;6.10;;;4.65;;
21804;SDS011;11064;47.102;15.452;2023-04-01T06:08:26;5.07;;;4.07;;
21804;SDS011;11064;47.102;15.452;2023-04-01T06:22:56;6.30;;;3.72;;
21804;SDS011;11064;47.102;15.452;2023-04-01T06:39:22;4.22;;;2.92;;
21804;SDS011;11064;47.102;15.452;2023-04-01T06:44:35;4.18;;;2.60;;
21804;SDS011;11064;47.102;15.452;2023-04-01T06:47:27;2.83;;;2.40;;
21804;SDS011;11064;47.102;15.452;2023-04-01T06:50:07;3.10;;;2.30;;
21804;SDS011;11064;47.102;15.452;2023-04-01T06:55:39;2.95;;;2.05;;
21804;SDS011;11064;47.102;15.452;2023-04-01T07:00:48;3.15;;;1.77;;
21804;SDS011;11064;47.102;15.452;2023-04-01T07:03:29;3.33;;;1.90;;
21804;SDS011;11064;47.102;15.452;2023-04-01T07:06:02;1.80;;;1.63;;
21804;SDS011;11064;47.102;15.452;2023-04-01T07:08:37;1.60;;;1.30;;
21804;SDS011;11064;47.102;15.452;2023-04-01T07:11:09;4.10;;;1.63;;
21804;SDS011;11064;47.102;15.452;2023-04-01T07:13:39;3.10;;;1.70;;
21804;SDS011;11064;47.102;15.452;2023-04-01T07:18:43;1.83;;;1.30;;
21804;SDS011;11064;47.102;15.452;2023-04-01T07:24:11;1.65;;;1.30;;
21804;SDS011;11064;47.102;15.452;2023-04-01T07:26:43;1.20;;;1.10;;
21804;SDS011;11064;47.102;15.452;2023-04-01T07:29:09;1.77;;;1.30;;
21804;SDS011;11064;47.102;15.452;2023-04-01T07:34:12;2.22;;;1.70;;
21804;SDS011;11064;47.102;15.452;2023-04-01T07:39:30;2.35;;;1.70;;
21804;SDS011;11064;47.102;15.452;2023-04-01T07:55:43;1.52;;;0.90;;
21804;SDS011;11064;47.102;15.452;2023-04-01T08:03:54;1.70;;;1.10;;
21804;SDS011;11064;47.102;15.452;2023-04-01T08:07:25;1.27;;;1.05;;
21804;SDS011;11064;47.102;15.452;2023-04-01T08:09:59;1.35;;;1.10;;
21804;SDS011;11064;47.102;15.452;2023-04-01T08:12:54;1.30;;;0.90;;
21804;SDS011;11064;47.102;15.452;2023-04-01T08:15:28;1.67;;;1.10;;
21804;SDS011;11064;47.102;15.452;2023-04-01T08:18:37;2.05;;;0.90;;
21804;SDS011;11064;47.102;15.452;2023-04-01T08:21:25;1.23;;;0.80;;
21804;SDS011;11064;47.102;15.452;2023-04-01T08:23:57;0.80;;;0.80;;
21804;SDS011;11064;47.102;15.452;2023-04-01T08:26:30;0.88;;;0.80;;
21804;SDS011;11064;47.102;15.452;2023-04-01T08:31:51;0.88;;;0.77;;
21804;SDS011;11064;47.102;15.452;2023-04-01T08:34:40;1.65;;;1.02;;
21804;SDS011;11064;47.102;15.452;2023-04-01T08:37:16;1.30;;;0.70;;
21804;SDS011;11064;47.102;15.452;2023-04-01T08:39:47;1.55;;;0.73;;
21804;SDS011;11064;47.102;15.452;2023-04-01T08:50:56;1.13;;;1.02;;
21804;SDS011;11064;47.102;15.452;2023-04-01T09:04:51;1.85;;;0.88;;
21804;SDS011;11064;47.102;15.452;2023-04-01T09:21:29;2.63;;;1.20;;
21804;SDS011;11064;47.102;15.452;2023-04-01T09:27:05;2.35;;;1.58;;
21804;SDS011;11064;47.102;15.452;2023-04-01T09:35:58;1.00;;;0.75;;
21804;SDS011;11064;47.102;15.452;2023-04-01T09:43:25;2.70;;;1.23;;
21804;SDS011;11064;47.102;15.452;2023-04-01T09:46:26;2.33;;;0.90;;
21804;SDS011;11064;47.102;15.452;2023-04-01T10:08:11;1.42;;;0.90;;
21804;SDS011;11064;47.102;15.452;2023-04-01T10:22:04;2.42;;;0.57;;
21804;SDS011;11064;47.102;15.452;2023-04-01T10:44:11;0.35;;;0.28;;
21804;SDS011;11064;47.102;15.452;2023-04-01T10:53:14;0.55;;;0.22;;
21804;SDS011;11064;47.102;15.452;2023-04-01T11:21:50;0.22;;;0.20;;
21804;SDS011;11064;47.102;15.452;2023-04-01T11:24:34;0.30;;;0.25;;
21804;SDS011;11064;47.102;15.452;2023-04-01T11:33:06;0.22;;;0.22;;
21804;SDS011;11064;47.102;15.452;2023-04-01T11:41:35;0.30;;;0.30;;
21804;SDS011;11064;47.102;15.452;2023-04-01T11:52:21;0.30;;;0.20;;
21804;SDS011;11064;47.102;15.452;2023-04-01T11:55:12;0.20;;;0.13;;
21804;SDS011;11064;47.102;15.452;2023-04-01T12:09:04;1.30;;;0.20;;
21804;SDS011;11064;47.102;15.452;2023-04-01T12:14:38;0.25;;;0.13;;
21804;SDS011;11064;47.102;15.452;2023-04-01T12:27:45;0.35;;;0.20;;
21804;SDS011;11064;47.102;15.452;2023-04-01T12:36:01;0.35;;;0.20;;
21804;SDS011;11064;47.102;15.452;2023-04-01T12:44:51;0.80;;;0.40;;
21804;SDS011;11064;47.102;15.452;2023-04-01T12:53:07;0.22;;;0.22;;
21804;SDS011;11064;47.102;15.452;2023-04-01T12:55:42;1.33;;;0.40;;
21804;SDS011;11064;47.102;15.452;2023-04-01T13:04:29;0.20;;;0.20;;
21804;SDS011;11064;47.102;15.452;2023-04-01T13:10:13;0.10;;;0.10;;
21804;SDS011;11064;47.102;15.452;2023-04-01T13:15:58;0.30;;;0.20;;
21804;SDS011;11064;47.102;15.452;2023-04-01T13:19:03;0.17;;;0.17;;
21804;SDS011;11064;47.102;15.452;2023-04-01T13:22:17;0.22;;;0.20;;
21804;SDS011;11064;47.102;15.452;2023-04-01T13:25:13;1.05;;;0.20;;
21804;SDS011;11064;47.102;15.452;2023-04-01T13:28:01;0.10;;;0.10;;
21804;SDS011;11064;47.102;15.452;2023-04-01T13:30:53;0.47;;;0.30;;
21804;SDS011;11064;47.102;15.452;2023-04-01T13:36:14;0.47;;;0.30;;
21804;SDS011;11064;47.102;15.452;2023-04-01T13:50:18;0.28;;;0.28;;
21804;SDS011;11064;47.102;15.452;2023-04-01T13:55:50;3.30;;;0.30;;
21804;SDS011;11064;47.102;15.452;2023-04-01T14:11:50;0.70;;;0.20;;
21804;SDS011;11064;47.102;15.452;2023-04-01T14:33:55;0.10;;;0.10;;
21804;SDS011;11064;47.102;15.452;2023-04-01T14:39:42;0.20;;;0.20;;
21804;SDS011;11064;47.102;15.452;2023-04-01T14:47:53;0.30;;;0.10;;
21804;SDS011;11064;47.102;15.452;2023-04-01T14:50:24;0.25;;;0.20;;
21804;SDS011;11064;47.102;15.452;2023-04-01T14:53:12;0.52;;;0.30;;
21804;SDS011;11064;47.102;15.452;2023-04-01T14:58:21;0.20;;;0.20;;
21804;SDS011;11064;47.102;15.452;2023-04-01T15:00:59;0.30;;;0.22;;
21804;SDS011;11064;47.102;15.452;2023-04-01T15:12:11;1.75;;;0.20;;
21804;SDS011;11064;47.102;15.452;2023-04-01T15:17:29;0.82;;;0.17;;
21804;SDS011;11064;47.102;15.452;2023-04-01T15:20:38;0.47;;;0.30;;
21804;SDS011;11064;47.102;15.452;2023-04-01T15:37:19;0.30;;;0.20;;
21804;SDS011;11064;47.102;15.452;2023-04-01T15:39:54;0.30;;;0.15;;
21804;SDS011;11064;47.102;15.452;2023-04-01T15:42:43;0.20;;;0.20;;
21804;SDS011;11064;47.102;15.452;2023-04-01T15:45:32;0.20;;;0.20;;
21804;SDS011;11064;47.102;15.452;2023-04-01T15:54:51;0.20;;;0.20;;
21804;SDS011;11064;47.102;15.452;2023-04-01T16:01:59;0.32;;;0.20;;
21804;SDS011;11064;47.102;15.452;2023-04-01T16:04:56;0.25;;;0.25;;
21804;SDS011;11064;47.102;15.452;2023-04-01T16:07:37;0.13;;;0.13;;
21804;SDS011;11064;47.102;15.452;2023-04-01T16:24:30;1.10;;;0.60;;
21804;SDS011;11064;47.102;15.452;2023-04-01T16:27:07;0.20;;;0.20;;
21804;SDS011;11064;47.102;15.452;2023-04-01T16:32:50;0.82;;;0.60;;
21804;SDS011;11064;47.102;15.452;2023-04-01T16:35:41;1.15;;;0.80;;
21804;SDS011;11064;47.102;15.452;2023-04-01T16:51:20;1.15;;;0.40;;
21804;SDS011;11064;47.102;15.452;2023-04-01T16:56:44;0.45;;;0.40;;
21804;SDS011;11064;47.102;15.452;2023-04-01T16:59:38;0.85;;;0.50;;
21804;SDS011;11064;47.102;15.452;2023-04-01T17:02:18;0.30;;;0.30;;
21804;SDS011;11064;47.102;15.452;2023-04-01T17:05:08;0.35;;;0.30;;
21804;SDS011;11064;47.102;15.452;2023-04-01T17:10:31;0.43;;;0.30;;
21804;SDS011;11064;47.102;15.452;2023-04-01T17:27:51;0.68;;;0.60;;
21804;SDS011;11064;47.102;15.452;2023-04-01T17:33:30;0.57;;;0.40;;
21804;SDS011;11064;47.102;15.452;2023-04-01T17:39:26;0.70;;;0.68;;
21804;SDS011;11064;47.102;15.452;2023-04-01T17:42:04;0.90;;;0.70;;
21804;SDS011;11064;47.102;15.452;2023-04-01T17:44:44;1.00;;;0.90;;
21804;SDS011;11064;47.102;15.452;2023-04-01T17:56:00;0.77;;;0.73;;
21804;SDS011;11064;47.102;15.452;2023-04-01T17:58:55;0.50;;;0.50;;
21804;SDS011;11064;47.102;15.452;2023-04-01T18:08:05;0.60;;;0.40;;
21804;SDS011;11064;47.102;15.452;2023-04-01T18:11:16;0.32;;;0.30;;
21804;SDS011;11064;47.102;15.452;2023-04-01T18:17:24;0.30;;;0.30;;
21804;SDS011;11064;47.102;15.452;2023-04-01T18:22:58;0.40;;;0.30;;
21804;SDS011;11064;47.102;15.452;2023-04-01T18:25:32;0.22;;;0.22;;
21804;SDS011;11064;47.102;15.452;2023-04-01T18:39:57;0.88;;;0.45;;
21804;SDS011;11064;47.102;15.452;2023-04-01T18:45:43;1.05;;;0.30;;
21804;SDS011;11064;47.102;15.452;2023-04-01T18:56:33;0.90;;;0.50;;
21804;SDS011;11064;47.102;15.452;2023-04-01T19:09:51;0.30;;;0.30;;
21804;SDS011;11064;47.102;15.452;2023-04-01T19:18:19;0.40;;;0.40;;
21804;SDS011;11064;47.102;15.452;2023-04-01T19:21:12;1.23;;;0.40;;
21804;SDS011;11064;47.102;15.452;2023-04-01T19:26:53;0.65;;;0.38;;
21804;SDS011;11064;47.102;15.452;2023-04-01T19:37:59;0.50;;;0.50;;
21804;SDS011;11064;47.102;15.452;2023-04-01T19:45:54;0.35;;;0.35;;
21804;SDS011;11064;47.102;15.452;2023-04-01T19:51:31;0.30;;;0.30;;
21804;SDS011;11064;47.102;15.452;2023-04-01T19:57:17;0.30;;;0.30;;
21804;SDS011;11064;47.102;15.452;2023-04-01T20:02:37;0.20;;;0.20;;
21804;SDS011;11064;47.102;15.452;2023-04-01T20:14:26;0.22;;;0.22;;
21804;SDS011;11064;47.102;15.452;2023-04-01T20:22:52;0.40;;;0.40;;
21804;SDS011;11064;47.102;15.452;2023-04-01T20:25:55;0.35;;;0.30;;
21804;SDS011;11064;47.102;15.452;2023-04-01T20:28:32;1.35;;;0.30;;
21804;SDS011;11064;47.102;15.452;2023-04-01T20:31:13;0.28;;;0.28;;
21804;SDS011;11064;47.102;15.452;2023-04-01T20:40:12;0.50;;;0.40;;
21804;SDS011;11064;47.102;15.452;2023-04-01T20:53:43;0.45;;;0.30;;
21804;SDS011;11064;47.102;15.452;2023-04-01T21:16:07;2.78;;;1.60;;
21804;SDS011;11064;47.102;15.452;2023-04-01T21:18:57;4.38;;;2.90;;
21804;SDS011;11064;47.102;15.452;2023-04-01T21:22:05;2.95;;;1.60;;
21804;SDS011;11064;47.102;15.452;2023-04-01T21:30:53;1.98;;;1.85;;
21804;SDS011;11064;47.102;15.452;2023-04-01T21:36:30;2.15;;;1.38;;
21804;SDS011;11064;47.102;15.452;2023-04-01T21:39:22;1.58;;;1.20;;
21804;SDS011;11064;47.102;15.452;2023-04-01T21:41:58;2.40;;;1.10;;
